createdAt,value
2022-09-17T00:01:03.320Z,97432.00
2022-09-17T00:03:30.358Z,97428.44
2022-09-17T00:06:04.722Z,97436.66
2022-09-17T00:08:31.796Z,97437.75
2022-09-17T00:10:58.913Z,97437.75
2022-09-17T00:13:25.894Z,97430.63
2022-09-17T00:15:52.904Z,97434.50
2022-09-17T00:18:19.877Z,97430.38
2022-09-17T00:20:47.222Z,97442.16
2022-09-17T00:23:14.413Z,97443.25
2022-09-17T00:25:42.588Z,97440.53
2022-09-17T00:28:09.547Z,97438.09
2022-09-17T00:30:37.018Z,97443.56
2022-09-17T00:33:04.008Z,97444.34
2022-09-17T00:35:30.926Z,97443.56
2022-09-17T00:37:57.855Z,97438.88
2022-09-17T00:40:24.839Z,97436.13
2022-09-17T00:42:53.621Z,97440.53
2022-09-17T00:45:20.799Z,97438.88
2022-09-17T00:47:57.487Z,97440.53
2022-09-17T00:50:29.179Z,97441.63
2022-09-17T00:53:11.543Z,97441.91
2022-09-17T00:55:48.907Z,97443.84
2022-09-17T00:58:16.240Z,97432.31
2022-09-17T01:00:43.279Z,97428.50
2022-09-17T01:03:10.314Z,97430.72
2022-09-17T01:05:43.754Z,97436.19
2022-09-17T01:09:00.911Z,97434.56
2022-09-17T01:11:54.559Z,97425.78
2022-09-17T01:14:48.513Z,97429.63
2022-09-17T01:18:01.832Z,97426.09
2022-09-17T01:21:09.212Z,97421.13
2022-09-17T01:24:16.656Z,97418.66
2022-09-17T01:27:21.402Z,97425.25
2022-09-17T01:30:17.578Z,97429.63
2022-09-17T01:32:59.799Z,97422.81
2022-09-17T01:35:36.591Z,97424.44
2022-09-17T01:38:09.513Z,97414.56
2022-09-17T01:40:48.607Z,97422.25
2022-09-17T01:43:27.229Z,97423.88
2022-09-17T01:46:01.336Z,97426.94
2022-09-17T01:48:31.796Z,97425.28
2022-09-17T01:51:07.515Z,97430.78
2022-09-17T01:53:41.650Z,97428.31
2022-09-17T01:56:08.559Z,97422.81
2022-09-17T01:58:41.965Z,97426.66
2022-09-17T02:01:09.085Z,97414.09
2022-09-17T02:03:40.227Z,97424.47
2022-09-17T02:06:11.988Z,97427.47
2022-09-17T02:09:15.279Z,97423.66
2022-09-17T02:11:42.891Z,97423.09
2022-09-17T02:14:15.288Z,97419.56
2022-09-17T02:16:46.611Z,97422.31
2022-09-17T02:19:23.462Z,97426.97
2022-09-17T02:22:17.802Z,97434.06
2022-09-17T02:24:53.271Z,97437.91
2022-09-17T02:27:24.736Z,97441.75
2022-09-17T02:29:51.657Z,97440.09
2022-09-17T02:32:18.657Z,97437.94
2022-09-17T02:34:45.594Z,97446.69
2022-09-17T02:37:12.555Z,97445.06
2022-09-17T02:39:39.524Z,97439.59
2022-09-17T02:42:28.117Z,97442.59
2022-09-17T02:45:08.247Z,97441.50
2022-09-17T02:47:51.747Z,97437.94
2022-09-17T02:50:39.784Z,97438.47
2022-09-17T02:53:22.420Z,97432.47
2022-09-17T02:56:19.346Z,97439.59
2022-09-17T02:59:01.233Z,97438.78
2022-09-17T03:01:35.518Z,97438.78
2022-09-17T03:04:03.144Z,97431.66
2022-09-17T03:06:30.295Z,97434.66
2022-09-17T03:08:59.744Z,97429.19
2022-09-17T03:11:26.743Z,97420.44
2022-09-17T03:13:53.956Z,97422.88
2022-09-17T03:16:20.971Z,97417.97
2022-09-17T03:18:47.920Z,97413.31
2022-09-17T03:21:14.824Z,97417.97
2022-09-17T03:23:41.818Z,97417.16
2022-09-17T03:26:08.725Z,97415.50
2022-09-17T03:28:35.696Z,97409.25
2022-09-17T03:31:02.651Z,97410.84
2022-09-17T03:33:29.628Z,97410.59
2022-09-17T03:35:56.537Z,97407.84
2022-09-17T03:38:23.524Z,97391.69
2022-09-17T03:41:04.402Z,97404.56
2022-09-17T03:43:31.347Z,97399.06
2022-09-17T03:45:58.332Z,97396.63
2022-09-17T03:48:25.265Z,97395.56
2022-09-17T03:50:52.257Z,97385.69
2022-09-17T03:53:19.295Z,97387.88
2022-09-17T03:55:46.237Z,97383.22
2022-09-17T03:58:13.201Z,97385.13
2022-09-17T04:00:40.334Z,97383.22
2022-09-17T04:03:07.375Z,97381.56
2022-09-17T04:05:34.444Z,97379.16
2022-09-17T04:08:02.092Z,97384.63
2022-09-17T04:10:29.545Z,97376.69
2022-09-17T04:12:56.551Z,97372.84
2022-09-17T04:15:23.465Z,97378.59
2022-09-17T04:17:50.471Z,97379.41
2022-09-17T04:20:17.507Z,97386.53
2022-09-17T04:22:44.658Z,97387.63
2022-09-17T04:25:11.785Z,97385.72
2022-09-17T04:27:38.779Z,97379.16
2022-09-17T04:30:06.266Z,97379.41
2022-09-17T04:32:33.221Z,97380.25
2022-09-17T04:35:00.141Z,97377.78
2022-09-17T04:37:27.091Z,97380.50
2022-09-17T04:39:54.041Z,97373.38
2022-09-17T04:42:21.047Z,97367.13
2022-09-17T04:44:48.017Z,97363.56
2022-09-17T04:47:14.940Z,97359.19
2022-09-17T04:49:41.911Z,97364.66
2022-09-17T04:52:08.835Z,97372.31
2022-09-17T04:54:35.850Z,97367.66
2022-09-17T04:57:02.871Z,97370.13
2022-09-17T04:59:30.037Z,97373.97
2022-09-17T05:01:56.977Z,97373.97
2022-09-17T05:04:24.021Z,97373.97
2022-09-17T05:06:50.995Z,97373.97
2022-09-17T05:09:18.035Z,97386.00
2022-09-17T05:11:45.390Z,97390.41
2022-09-17T05:14:13.670Z,97383.28
2022-09-17T05:16:41.038Z,97384.41
2022-09-17T05:19:08.463Z,97387.13
2022-09-17T05:21:35.401Z,97389.88
2022-09-17T05:24:02.620Z,97381.94
2022-09-17T05:26:29.904Z,97383.28
2022-09-17T05:28:56.981Z,97382.75
2022-09-17T05:31:24.270Z,97392.88
2022-09-17T05:33:51.252Z,97390.16
2022-09-17T05:36:18.268Z,97393.16
2022-09-17T05:38:45.198Z,97386.59
2022-09-17T05:41:12.143Z,97391.78
2022-09-17T05:43:39.105Z,97392.63
2022-09-17T05:46:07.276Z,97401.63
2022-09-17T05:48:34.329Z,97398.88
2022-09-17T05:51:01.258Z,97393.41
2022-09-17T05:53:28.212Z,97396.97
2022-09-17T05:55:58.753Z,97393.41
2022-09-17T05:58:25.786Z,97391.78
2022-09-17T06:00:52.894Z,97393.16
2022-09-17T06:03:20.225Z,97388.78
2022-09-17T06:05:55.197Z,97403.56
2022-09-17T06:08:22.870Z,97398.09
2022-09-17T06:10:49.903Z,97381.66
2022-09-17T06:13:17.891Z,97377.28
2022-09-17T06:15:52.749Z,97387.13
2022-09-17T06:18:19.988Z,97388.75
2022-09-17T06:21:00.199Z,97363.84
2022-09-17T06:23:27.262Z,97358.63
2022-09-17T06:25:56.863Z,97358.34
2022-09-17T06:28:24.149Z,97354.78
2022-09-17T06:30:54.618Z,97359.19
2022-09-17T06:33:22.122Z,97375.59
2022-09-17T06:35:49.135Z,97378.88
2022-09-17T06:38:16.202Z,97382.72
2022-09-17T06:40:43.227Z,97377.78
2022-09-17T06:43:10.243Z,97375.03
2022-09-17T06:45:37.238Z,97372.59
2022-09-17T06:48:05.537Z,97372.59
2022-09-17T06:50:32.494Z,97375.34
2022-09-17T06:52:59.440Z,97380.50
2022-09-17T06:55:26.408Z,97395.03
2022-09-17T06:57:53.326Z,97400.78
2022-09-17T07:00:20.481Z,97396.94
2022-09-17T07:03:00.941Z,97402.41
2022-09-17T07:05:28.664Z,97404.06
2022-09-17T07:07:55.675Z,97398.59
2022-09-17T07:10:23.707Z,97396.94
2022-09-17T07:12:50.684Z,97400.22
2022-09-17T07:15:17.603Z,97403.78
2022-09-17T07:17:47.611Z,97397.75
2022-09-17T07:20:14.764Z,97394.44
2022-09-17T07:22:41.762Z,97399.66
2022-09-17T07:25:09.435Z,97419.66
2022-09-17T07:27:36.418Z,97432.53
2022-09-17T07:30:03.670Z,97427.03
2022-09-17T07:32:31.574Z,97429.78
2022-09-17T07:34:58.576Z,97425.13
2022-09-17T07:37:25.784Z,97415.00
2022-09-17T07:39:52.735Z,97417.72
2022-09-17T07:42:19.741Z,97432.00
2022-09-17T07:44:47.109Z,97434.69
2022-09-17T07:47:14.090Z,97436.63
2022-09-17T07:49:41.030Z,97436.31
2022-09-17T07:52:08.028Z,97442.06
2022-09-17T07:54:37.073Z,97429.19
2022-09-17T07:57:04.469Z,97428.09
2022-09-17T07:59:31.427Z,97429.19
2022-09-17T08:01:58.471Z,97428.34
2022-09-17T08:04:25.760Z,97426.41
2022-09-17T08:06:52.713Z,97434.63
2022-09-17T08:09:19.790Z,97441.50
2022-09-17T08:12:02.130Z,97438.19
2022-09-17T08:14:30.073Z,97431.06
2022-09-17T08:16:57.591Z,97428.88
2022-09-17T08:19:24.707Z,97422.84
2022-09-17T08:21:52.367Z,97419.84
2022-09-17T08:24:19.349Z,97417.09
2022-09-17T08:26:46.298Z,97407.78
2022-09-17T08:29:13.293Z,97395.75
2022-09-17T08:31:40.289Z,97403.13
2022-09-17T08:34:09.527Z,97413.78
2022-09-17T08:36:37.089Z,97416.53
2022-09-17T08:39:04.180Z,97416.53
2022-09-17T08:42:06.830Z,97423.66
2022-09-17T08:44:43.150Z,97426.66
2022-09-17T08:47:18.698Z,97422.81
2022-09-17T08:49:52.346Z,97418.16
2022-09-17T08:52:32.327Z,97407.22
2022-09-17T08:55:05.192Z,97409.69
2022-09-17T08:57:50.932Z,97397.06
2022-09-17T09:00:19.813Z,97392.41
2022-09-17T09:03:40.614Z,97386.94
2022-09-17T09:06:10.887Z,97392.41
2022-09-17T09:09:02.202Z,97386.94
2022-09-17T09:11:29.592Z,97395.16
2022-09-17T09:14:11.692Z,97399.53
2022-09-17T09:16:40.350Z,97397.91
2022-09-17T09:19:53.248Z,97405.81
2022-09-17T09:22:22.915Z,97411.28
2022-09-17T09:25:13.961Z,97415.16
2022-09-17T09:27:59.722Z,97435.16
2022-09-17T09:30:26.638Z,97436.25
2022-09-17T09:33:05.122Z,97445.00
2022-09-17T09:35:34.075Z,97425.28
2022-09-17T09:38:09.826Z,97430.19
2022-09-17T09:40:40.737Z,97429.38
2022-09-17T09:43:53.005Z,97427.72
2022-09-17T09:46:45.366Z,97427.47
2022-09-17T09:49:18.140Z,97438.41
2022-09-17T09:51:54.023Z,97434.56
2022-09-17T09:54:32.643Z,97436.50
2022-09-17T09:57:03.799Z,97430.19
2022-09-17T09:59:30.730Z,97436.50
2022-09-17T10:01:58.192Z,97441.16
2022-09-17T10:04:26.510Z,97446.34
2022-09-17T10:07:00.836Z,97449.09
2022-09-17T10:09:30.210Z,97440.06
2022-09-17T10:12:15.516Z,97443.88
2022-09-17T10:14:43.489Z,97441.44
2022-09-17T10:17:24.090Z,97442.25
2022-09-17T10:20:00.161Z,97447.72
2022-09-17T10:22:32.529Z,97446.13
2022-09-17T10:24:59.804Z,97450.47
2022-09-17T10:27:26.963Z,97450.47
2022-09-17T10:30:04.938Z,97449.66
2022-09-17T10:32:31.925Z,97450.47
2022-09-17T10:35:05.904Z,97446.13
2022-09-17T10:37:49.470Z,97455.94
2022-09-17T10:40:19.478Z,97455.69
2022-09-17T10:42:50.770Z,97451.84
2022-09-17T10:45:25.336Z,97441.97
2022-09-17T10:47:52.365Z,97443.88
2022-09-17T10:50:25.599Z,97441.16
2022-09-17T10:52:55.790Z,97448.28
2022-09-17T10:55:38.509Z,97460.88
2022-09-17T10:58:08.483Z,97463.63
2022-09-17T11:00:44.762Z,97453.75
2022-09-17T11:03:24.778Z,97447.47
2022-09-17T11:06:12.163Z,97447.19
2022-09-17T11:09:10.587Z,97459.75
2022-09-17T11:12:06.004Z,97452.66
2022-09-17T11:14:47.289Z,97451.53
2022-09-17T11:18:04.713Z,97455.41
2022-09-17T11:21:05.240Z,97449.91
2022-09-17T11:23:50.627Z,97451.03
2022-09-17T11:26:38.829Z,97458.41
2022-09-17T11:29:10.375Z,97468.56
2022-09-17T11:31:50.105Z,97477.88
2022-09-17T11:34:22.455Z,97473.50
2022-09-17T11:37:19.014Z,97466.38
2022-09-17T11:40:22.311Z,97465.28
2022-09-17T11:42:55.361Z,97465.28
2022-09-17T11:45:26.194Z,97457.06
2022-09-17T11:48:01.346Z,97465.56
2022-09-17T11:50:38.298Z,97462.00
2022-09-17T11:53:26.288Z,97459.53
2022-09-17T11:56:16.129Z,97460.34
2022-09-17T11:59:03.484Z,97459.53
2022-09-17T12:01:58.125Z,97453.22
2022-09-17T12:04:31.059Z,97455.97
2022-09-17T12:07:12.450Z,97445.59
2022-09-17T12:09:39.497Z,97445.84
2022-09-17T12:12:49.572Z,97448.56
2022-09-17T12:15:28.255Z,97445.84
2022-09-17T12:18:27.803Z,97441.47
2022-09-17T12:20:49.809Z,97426.66
2022-09-17T12:23:44.380Z,97438.44
2022-09-17T12:26:17.340Z,97427.47
2022-09-17T12:29:21.476Z,97422.00
2022-09-17T12:32:17.750Z,97408.31
2022-09-17T12:34:53.771Z,97415.44
2022-09-17T12:37:39.021Z,97414.34
2022-09-17T12:40:15.489Z,97408.03
2022-09-17T12:43:06.239Z,97397.91
2022-09-17T12:45:54.111Z,97403.38
2022-09-17T12:48:47.455Z,97395.97
2022-09-17T12:51:50.624Z,97395.16
2022-09-17T12:54:45.162Z,97401.72
2022-09-17T12:57:15.012Z,97390.78
2022-09-17T12:59:51.630Z,97388.03
2022-09-17T13:03:05.152Z,97382.56
2022-09-17T13:05:35.821Z,97389.13
2022-09-17T13:08:32.649Z,97386.38
2022-09-17T13:11:08.019Z,97396.53
2022-09-17T13:13:50.664Z,97389.94
2022-09-17T13:16:22.225Z,97382.81
2022-09-17T13:19:15.014Z,97368.03
2022-09-17T13:21:55.885Z,97366.94
2022-09-17T13:24:25.395Z,97360.63
2022-09-17T13:26:55.157Z,97356.25
2022-09-17T13:29:46.764Z,97364.19
2022-09-17T13:32:35.353Z,97372.69
2022-09-17T13:35:14.829Z,97375.44
2022-09-17T13:37:56.429Z,97387.22
2022-09-17T13:40:32.417Z,97388.31
2022-09-17T13:43:10.327Z,97383.13
2022-09-17T13:45:59.755Z,97387.47
2022-09-17T13:48:33.380Z,97399.00
2022-09-17T13:51:32.374Z,97399.25
2022-09-17T13:54:09.337Z,97413.78
2022-09-17T13:56:38.322Z,97401.72
2022-09-17T13:59:28.989Z,97380.66
2022-09-17T14:02:18.807Z,97361.22
2022-09-17T14:04:47.220Z,97348.03
2022-09-17T14:07:28.800Z,97343.66
2022-09-17T14:10:00.386Z,97329.97
2022-09-17T14:12:44.629Z,97320.13
2022-09-17T14:15:43.645Z,97317.91
2022-09-17T14:18:28.997Z,97317.91
2022-09-17T14:21:05.835Z,97307.78
2022-09-17T14:23:44.611Z,97310.22
2022-09-17T14:26:36.358Z,97317.03
2022-09-17T14:29:06.227Z,97325.81
2022-09-17T14:31:35.922Z,97328.56
2022-09-17T14:34:05.233Z,97343.59
2022-09-17T14:36:35.226Z,97349.88
2022-09-17T14:39:02.433Z,97356.19
2022-09-17T14:41:37.182Z,97350.72
2022-09-17T14:44:25.684Z,97353.44
2022-09-17T14:47:03.076Z,97354.53
2022-09-17T14:49:33.226Z,97348.25
2022-09-17T14:52:00.308Z,97349.88
2022-09-17T14:54:35.784Z,97343.88
2022-09-17T14:57:09.456Z,97350.16
2022-09-17T14:59:55.138Z,97341.94
2022-09-17T15:02:37.083Z,97336.47
2022-09-17T15:05:39.654Z,97329.38
2022-09-17T15:08:16.431Z,97329.38
2022-09-17T15:10:49.305Z,97320.59
2022-09-17T15:13:27.844Z,97327.72
2022-09-17T15:16:07.800Z,97326.09
2022-09-17T15:18:36.818Z,97320.59
2022-09-17T15:21:04.735Z,97313.47
2022-09-17T15:23:31.745Z,97321.19
2022-09-17T15:25:58.687Z,97327.19
2022-09-17T15:28:30.130Z,97328.31
2022-09-17T15:30:57.160Z,97331.84
2022-09-17T15:33:24.737Z,97331.31
2022-09-17T15:36:24.533Z,97334.06
2022-09-17T15:38:51.840Z,97352.41
2022-09-17T15:41:20.797Z,97357.06
2022-09-17T15:43:49.589Z,97362.56
2022-09-17T15:46:36.897Z,97348.59
2022-09-17T15:49:04.451Z,97356.81
2022-09-17T15:51:34.289Z,97353.25
2022-09-17T15:54:05.215Z,97354.06
2022-09-17T15:56:33.815Z,97348.59
2022-09-17T15:59:05.295Z,97349.69
2022-09-17T16:01:41.024Z,97347.75
2022-09-17T16:04:16.791Z,97357.91
2022-09-17T16:07:12.846Z,97358.72
2022-09-17T16:09:41.114Z,97360.38
2022-09-17T16:12:08.226Z,97365.56
2022-09-17T16:14:35.199Z,97357.06
2022-09-17T16:17:10.105Z,97356.56
2022-09-17T16:19:37.048Z,97360.09
2022-09-17T16:22:03.988Z,97359.84
2022-09-17T16:24:30.934Z,97356.59
2022-09-17T16:26:57.944Z,97359.03
2022-09-17T16:29:24.874Z,97367.56
2022-09-17T16:31:52.021Z,97364.50
2022-09-17T16:34:19.059Z,97349.75
2022-09-17T16:36:46.437Z,97369.47
2022-09-17T16:39:13.388Z,97369.47
2022-09-17T16:41:40.318Z,97365.63
2022-09-17T16:44:07.608Z,97367.56
2022-09-17T16:46:35.228Z,97372.22
2022-09-17T16:49:02.223Z,97354.13
2022-09-17T16:51:29.265Z,97349.75
2022-09-17T16:53:58.179Z,97354.72
2022-09-17T16:56:25.232Z,97354.97
2022-09-17T16:58:56.102Z,97353.06
2022-09-17T17:01:24.538Z,97361.56
2022-09-17T17:03:53.605Z,97359.94
2022-09-17T17:06:22.736Z,97357.47
2022-09-17T17:08:49.918Z,97360.22
2022-09-17T17:11:16.908Z,97349.53
2022-09-17T17:13:44.361Z,97357.47
2022-09-17T17:16:14.286Z,97345.44
2022-09-17T17:18:44.758Z,97345.69
2022-09-17T17:21:12.611Z,97350.34
2022-09-17T17:23:39.819Z,97337.47
2022-09-17T17:26:07.084Z,97344.06
2022-09-17T17:28:35.349Z,97346.53
2022-09-17T17:31:03.743Z,97346.53
2022-09-17T17:33:30.658Z,97333.94
2022-09-17T17:36:06.690Z,97339.97
2022-09-17T17:38:34.884Z,97329.84
2022-09-17T17:41:09.092Z,97326.56
2022-09-17T17:43:36.181Z,97330.13
2022-09-17T17:46:05.841Z,97334.50
2022-09-17T17:48:32.879Z,97337.50
2022-09-17T17:51:09.569Z,97335.06
2022-09-17T17:53:36.722Z,97342.47
2022-09-17T17:56:06.275Z,97344.13
2022-09-17T17:58:33.537Z,97336.69
2022-09-17T18:01:00.852Z,97331.22
2022-09-17T18:03:27.866Z,97330.16
2022-09-17T18:05:57.913Z,97338.09
2022-09-17T18:08:24.984Z,97343.25
2022-09-17T18:10:57.790Z,97353.13
2022-09-17T18:13:24.739Z,97351.47
2022-09-17T18:15:59.376Z,97358.59
2022-09-17T18:18:30.362Z,97360.81
2022-09-17T18:21:03.243Z,97355.34
2022-09-17T18:23:30.297Z,97349.88
2022-09-17T18:25:58.555Z,97351.78
2022-09-17T18:28:26.056Z,97359.19
2022-09-17T18:30:53.171Z,97351.25
2022-09-17T18:33:24.754Z,97355.88
2022-09-17T18:35:53.655Z,97364.09
2022-09-17T18:38:20.610Z,97352.63
2022-09-17T18:40:47.647Z,97350.72
2022-09-17T18:43:14.677Z,97350.41
2022-09-17T18:45:41.825Z,97355.88
2022-09-17T18:48:08.810Z,97351.53
2022-09-17T18:50:35.842Z,97343.31
2022-09-17T18:53:03.073Z,97344.94
2022-09-17T18:55:30.372Z,97346.59
2022-09-17T18:57:57.348Z,97344.69
2022-09-17T19:00:24.597Z,97347.16
2022-09-17T19:02:51.676Z,97350.41
2022-09-17T19:05:18.629Z,97355.38
2022-09-17T19:07:46.573Z,97353.72
2022-09-17T19:10:14.511Z,97367.41
2022-09-17T19:12:42.441Z,97356.47
2022-09-17T19:15:10.772Z,97359.47
2022-09-17T19:17:38.746Z,97357.56
2022-09-17T19:20:06.070Z,97353.19
2022-09-17T19:22:33.877Z,97357.03
2022-09-17T19:25:00.851Z,97356.22
2022-09-17T19:27:27.936Z,97359.47
2022-09-17T19:29:57.968Z,97359.78
2022-09-17T19:32:25.096Z,97363.34
2022-09-17T19:34:52.025Z,97349.66
2022-09-17T19:37:19.053Z,97351.25
2022-09-17T19:39:46.029Z,97359.78
2022-09-17T19:42:13.028Z,97350.44
2022-09-17T19:44:40.000Z,97354.56
2022-09-17T19:47:07.104Z,97352.94
2022-09-17T19:49:34.100Z,97355.41
2022-09-17T19:52:01.199Z,97360.06
2022-09-17T19:54:28.103Z,97352.94
2022-09-17T19:56:55.028Z,97352.13
2022-09-17T19:59:21.974Z,97346.38
2022-09-17T20:01:49.800Z,97359.81
2022-09-17T20:04:16.963Z,97352.69
2022-09-17T20:06:43.899Z,97352.97
2022-09-17T20:09:10.877Z,97343.66
2022-09-17T20:11:39.238Z,97349.69
2022-09-17T20:14:09.258Z,97348.03
2022-09-17T20:16:37.135Z,97343.38
2022-09-17T20:19:07.168Z,97341.75
2022-09-17T20:21:34.771Z,97347.75
2022-09-17T20:24:01.925Z,97340.63
2022-09-17T20:26:28.856Z,97343.38
2022-09-17T20:28:56.979Z,97342.84
2022-09-17T20:31:25.816Z,97348.03
2022-09-17T20:33:58.430Z,97349.94
2022-09-17T20:36:33.876Z,97349.41
2022-09-17T20:41:48.357Z,97341.19
2022-09-17T20:44:15.364Z,97351.03
2022-09-17T20:46:42.410Z,97343.94
2022-09-17T20:49:09.564Z,97339.28
2022-09-17T20:51:37.107Z,97346.38
2022-09-17T20:54:05.222Z,97342.84
2022-09-17T20:56:33.559Z,97343.13
2022-09-17T20:59:13.497Z,97342.84
2022-09-17T21:01:40.964Z,97340.41
2022-09-17T21:04:09.102Z,97320.41
2022-09-17T21:06:38.310Z,97337.09
2022-09-17T21:09:11.232Z,97339.00
2022-09-17T21:11:38.428Z,97339.81
2022-09-17T21:14:05.514Z,97336.25
2022-09-17T21:16:32.797Z,97331.88
2022-09-17T21:19:02.993Z,97335.44
2022-09-17T21:21:30.921Z,97332.69
2022-09-17T21:24:01.727Z,97328.31
2022-09-17T21:26:28.791Z,97343.94
2022-09-17T21:28:56.807Z,97336.84
2022-09-17T21:31:33.211Z,97342.31
2022-09-17T21:34:02.681Z,97338.75
2022-09-17T21:36:31.402Z,97343.41
2022-09-17T21:39:00.186Z,97340.66
2022-09-17T21:41:28.059Z,97339.00
2022-09-17T21:43:55.178Z,97335.19
2022-09-17T21:46:23.636Z,97343.41
2022-09-17T21:48:56.437Z,97337.94
2022-09-17T21:51:30.750Z,97336.84
2022-09-17T21:54:02.570Z,97346.16
2022-09-17T21:56:30.335Z,97341.50
2022-09-17T21:58:59.479Z,97339.84
2022-09-17T22:01:31.727Z,97338.75
2022-09-17T22:03:59.431Z,97348.88
2022-09-17T22:06:28.426Z,97344.47
2022-09-17T22:08:55.618Z,97343.66
2022-09-17T22:11:24.413Z,97336.25
2022-09-17T22:13:56.051Z,97342.59
2022-09-17T22:16:23.976Z,97337.34
2022-09-17T22:18:51.434Z,97343.94
2022-09-17T22:21:22.759Z,97336.25
2022-09-17T22:23:50.448Z,97330.78
2022-09-17T22:26:17.771Z,97335.75
2022-09-17T22:28:44.731Z,97337.34
2022-09-17T22:31:12.397Z,97337.34
2022-09-17T22:33:41.075Z,97340.09
2022-09-17T22:36:12.824Z,97331.88
2022-09-17T22:38:40.067Z,97331.88
2022-09-17T22:41:16.091Z,97329.44
2022-09-17T22:43:43.118Z,97328.88
2022-09-17T22:46:11.598Z,97325.88
2022-09-17T22:48:39.405Z,97328.63
2022-09-17T22:51:06.661Z,97324.25
2022-09-17T22:53:34.208Z,97326.97
2022-09-17T22:56:03.894Z,97319.03
2022-09-17T22:58:31.314Z,97320.94
2022-09-17T23:00:58.767Z,97322.06
2022-09-17T23:03:29.125Z,97320.94
2022-09-17T23:06:02.823Z,97324.50
2022-09-17T23:08:29.859Z,97324.81
2022-09-17T23:10:56.853Z,97322.06
2022-09-17T23:13:23.963Z,97320.16
2022-09-17T23:15:51.010Z,97323.69
2022-09-17T23:18:18.091Z,97323.69
2022-09-17T23:20:45.030Z,97337.38
2022-09-17T23:23:11.939Z,97331.91
2022-09-17T23:25:38.912Z,97324.81
2022-09-17T23:28:05.822Z,97322.06
2022-09-17T23:30:32.769Z,97321.53
2022-09-17T23:32:59.764Z,97314.13
2022-09-17T23:35:26.677Z,97325.91
2022-09-17T23:37:53.619Z,97329.75
2022-09-17T23:40:22.294Z,97322.63
2022-09-17T23:42:49.305Z,97325.09
2022-09-17T23:45:16.319Z,97326.47
2022-09-17T23:47:43.295Z,97325.34
2022-09-17T23:50:10.286Z,97324.25
2022-09-17T23:52:37.217Z,97322.34
2022-09-17T23:55:04.980Z,97319.88
2022-09-17T23:57:31.974Z,97318.78
2022-09-17T23:59:59.058Z,97321.53
